createdAt,value
2023-03-17T00:01:54.704Z,9.70
2023-03-17T00:04:24.404Z,9.60
2023-03-17T00:06:52.702Z,9.70
2023-03-17T00:09:20.883Z,9.70
2023-03-17T00:11:49.195Z,9.70
2023-03-17T00:14:16.703Z,9.70
2023-03-17T00:16:49.841Z,9.70
2023-03-17T00:19:21.660Z,9.70
2023-03-17T00:21:49.098Z,9.70
2023-03-17T00:24:16.088Z,9.70
2023-03-17T00:26:43.419Z,9.70
2023-03-17T00:29:16.275Z,9.60
2023-03-17T00:31:45.326Z,9.60
2023-03-17T00:34:18.484Z,9.50
2023-03-17T00:36:50.565Z,9.50
2023-03-17T00:39:18.733Z,9.50
2023-03-17T00:44:12.600Z,9.40
2023-03-17T00:46:41.509Z,9.50
2023-03-17T00:51:44.728Z,9.50
2023-03-17T00:54:12.391Z,9.40
2023-03-17T00:56:40.485Z,9.40
2023-03-17T00:59:27.451Z,9.30
2023-03-17T01:01:54.656Z,9.20
2023-03-17T01:04:22.091Z,9.40
2023-03-17T01:06:50.356Z,9.30
2023-03-17T01:09:18.596Z,9.30
2023-03-17T01:11:45.794Z,9.30
2023-03-17T01:14:13.232Z,10.20
2023-03-17T01:16:40.772Z,9.30
2023-03-17T01:19:09.065Z,9.30
2023-03-17T01:21:35.772Z,9.30
2023-03-17T01:24:02.820Z,9.30
2023-03-17T01:26:29.600Z,9.30
2023-03-17T01:28:56.398Z,9.40
2023-03-17T01:31:24.365Z,9.30
2023-03-17T01:33:51.346Z,9.30
2023-03-17T01:36:18.424Z,9.30
2023-03-17T01:38:48.090Z,9.20
2023-03-17T01:41:15.114Z,9.20
2023-03-17T01:43:42.599Z,9.20
2023-03-17T01:46:34.052Z,10.20
2023-03-17T01:49:27.068Z,9.20
2023-03-17T01:52:09.378Z,9.20
2023-03-17T01:54:42.045Z,9.20
2023-03-17T01:57:43.046Z,9.20
2023-03-17T02:00:19.803Z,9.20
2023-03-17T02:02:51.915Z,9.30
2023-03-17T02:05:25.990Z,9.20
2023-03-17T02:07:54.486Z,9.20
2023-03-17T02:10:24.915Z,9.30
2023-03-17T02:12:55.595Z,9.30
2023-03-17T02:15:23.917Z,11.10
2023-03-17T02:17:50.947Z,9.30
2023-03-17T02:20:17.590Z,9.40
2023-03-17T02:22:52.541Z,9.30
2023-03-17T02:25:21.442Z,9.50
2023-03-17T02:28:02.293Z,9.40
2023-03-17T02:30:29.701Z,9.40
2023-03-17T02:32:56.754Z,9.40
2023-03-17T02:35:23.814Z,9.40
2023-03-17T02:37:50.558Z,9.40
2023-03-17T02:40:17.554Z,9.40
2023-03-17T02:42:44.615Z,9.50
2023-03-17T02:45:12.559Z,9.50
2023-03-17T02:47:41.393Z,9.50
2023-03-17T02:50:09.557Z,9.50
2023-03-17T02:52:36.641Z,9.50
2023-03-17T02:55:03.734Z,9.50
2023-03-17T02:57:30.821Z,9.50
2023-03-17T02:59:57.575Z,9.50
2023-03-17T03:02:24.562Z,9.50
2023-03-17T03:04:51.600Z,9.40
2023-03-17T03:07:18.869Z,9.30
2023-03-17T03:09:46.704Z,9.40
2023-03-17T03:12:13.963Z,9.40
2023-03-17T03:14:41.060Z,9.40
2023-03-17T03:17:09.161Z,9.30
2023-03-17T03:19:36.056Z,9.30
2023-03-17T03:22:02.801Z,9.40
2023-03-17T03:24:29.516Z,9.30
2023-03-17T03:26:56.527Z,10.10
2023-03-17T03:29:23.438Z,9.30
2023-03-17T03:31:50.431Z,9.30
2023-03-17T03:34:17.235Z,9.30
2023-03-17T03:36:44.240Z,9.30
2023-03-17T03:39:14.219Z,9.20
2023-03-17T03:41:41.249Z,9.20
2023-03-17T03:44:07.996Z,9.20
2023-03-17T03:46:34.735Z,9.20
2023-03-17T03:49:01.472Z,9.20
2023-03-17T03:51:28.127Z,9.20
2023-03-17T03:53:54.940Z,9.20
2023-03-17T03:56:21.678Z,9.20
2023-03-17T03:58:48.537Z,9.30
2023-03-17T04:01:15.499Z,9.20
2023-03-17T04:03:42.962Z,9.20
2023-03-17T04:06:09.757Z,9.20
2023-03-17T04:08:36.650Z,9.20
2023-03-17T04:11:03.456Z,9.20
2023-03-17T04:13:30.148Z,9.20
2023-03-17T04:15:57.163Z,9.10
2023-03-17T04:18:23.909Z,9.10
2023-03-17T04:20:50.689Z,9.00
2023-03-17T04:23:17.524Z,9.10
2023-03-17T04:25:44.961Z,9.00
2023-03-17T04:28:12.246Z,9.00
2023-03-17T04:30:39.226Z,9.00
2023-03-17T04:33:06.071Z,9.10
2023-03-17T04:35:32.847Z,9.10
2023-03-17T04:37:59.665Z,9.00
2023-03-17T04:40:26.705Z,8.90
2023-03-17T04:42:53.470Z,9.00
2023-03-17T04:45:21.090Z,8.90
2023-03-17T04:47:48.009Z,8.80
2023-03-17T04:50:15.324Z,8.80
2023-03-17T04:52:42.172Z,8.80
2023-03-17T04:55:09.632Z,8.80
2023-03-17T04:57:36.952Z,8.80
2023-03-17T05:00:05.684Z,8.80
2023-03-17T05:02:32.430Z,8.80
2023-03-17T05:04:59.201Z,8.70
2023-03-17T05:07:26.149Z,8.70
2023-03-17T05:09:52.872Z,8.60
2023-03-17T05:12:19.711Z,8.60
2023-03-17T05:14:47.158Z,8.70
2023-03-17T05:17:14.278Z,8.60
2023-03-17T05:19:41.113Z,8.60
2023-03-17T05:22:07.875Z,8.60
2023-03-17T05:24:34.650Z,8.60
2023-03-17T05:27:01.415Z,8.60
2023-03-17T05:29:28.239Z,8.60
2023-03-17T05:31:54.957Z,8.60
2023-03-17T05:34:21.806Z,8.70
2023-03-17T05:36:50.891Z,8.50
2023-03-17T05:39:17.704Z,8.50
2023-03-17T05:41:44.375Z,8.60
2023-03-17T05:44:11.065Z,8.50
2023-03-17T05:46:38.062Z,8.50
2023-03-17T05:49:04.894Z,8.60
2023-03-17T05:51:31.743Z,8.60
2023-03-17T05:53:58.523Z,8.70
2023-03-17T05:56:33.249Z,8.50
2023-03-17T05:59:03.483Z,8.50
2023-03-17T06:01:31.405Z,8.50
2023-03-17T06:03:58.401Z,8.40
2023-03-17T06:06:25.914Z,8.40
2023-03-17T06:08:53.016Z,8.50
2023-03-17T06:11:21.606Z,8.40
2023-03-17T06:13:48.411Z,8.40
2023-03-17T06:16:15.623Z,8.50
2023-03-17T06:18:42.782Z,10.10
2023-03-17T06:21:09.553Z,8.50
2023-03-17T06:23:36.673Z,8.50
2023-03-17T06:26:03.477Z,8.60
2023-03-17T06:28:30.709Z,8.50
2023-03-17T06:30:58.054Z,8.50
2023-03-17T06:33:25.482Z,8.50
2023-03-17T06:35:52.801Z,8.50
2023-03-17T06:38:20.813Z,8.50
2023-03-17T06:40:47.988Z,8.50
2023-03-17T06:43:14.790Z,8.50
2023-03-17T06:45:42.115Z,8.50
2023-03-17T06:48:09.245Z,8.60
2023-03-17T06:50:36.249Z,8.70
2023-03-17T06:53:04.049Z,8.80
2023-03-17T06:55:32.019Z,8.80
2023-03-17T06:57:59.125Z,9.00
2023-03-17T07:00:26.104Z,8.90
2023-03-17T07:02:52.841Z,9.00
2023-03-17T07:05:19.678Z,9.10
2023-03-17T07:07:46.598Z,9.90
2023-03-17T07:10:17.197Z,9.40
2023-03-17T07:12:44.754Z,9.40
2023-03-17T07:15:12.593Z,9.50
2023-03-17T07:17:39.594Z,9.50
2023-03-17T07:20:07.040Z,10.20
2023-03-17T07:22:33.792Z,9.70
2023-03-17T07:25:00.642Z,9.70
2023-03-17T07:27:27.929Z,9.80
2023-03-17T07:29:54.779Z,9.80
2023-03-17T07:32:21.553Z,10.00
2023-03-17T07:34:48.636Z,11.80
2023-03-17T07:37:15.532Z,10.20
2023-03-17T07:39:42.637Z,10.40
2023-03-17T07:42:14.760Z,10.50
2023-03-17T07:44:41.888Z,11.60
2023-03-17T07:47:10.043Z,11.00
2023-03-17T07:49:41.748Z,11.10
2023-03-17T07:52:10.841Z,11.30
2023-03-17T07:54:40.167Z,11.50
2023-03-17T07:57:09.271Z,12.50
2023-03-17T07:59:36.453Z,11.70
2023-03-17T08:02:03.824Z,11.90
2023-03-17T08:04:30.747Z,11.90
2023-03-17T08:06:57.803Z,11.90
2023-03-17T08:09:24.918Z,12.00
2023-03-17T08:11:52.140Z,12.00
2023-03-17T08:14:19.394Z,12.50
2023-03-17T08:16:46.427Z,12.10
2023-03-17T08:19:13.433Z,12.20
2023-03-17T08:21:40.431Z,12.30
2023-03-17T08:24:07.679Z,12.30
2023-03-17T08:26:34.620Z,12.30
2023-03-17T08:29:01.755Z,12.30
2023-03-17T08:31:28.810Z,12.50
2023-03-17T08:33:59.099Z,12.40
2023-03-17T08:36:26.242Z,12.50
2023-03-17T08:38:53.646Z,12.60
2023-03-17T08:41:23.964Z,12.70
2023-03-17T08:43:51.766Z,12.60
2023-03-17T08:46:28.387Z,12.70
2023-03-17T08:48:57.242Z,12.70
2023-03-17T08:51:27.068Z,12.80
2023-03-17T08:53:55.228Z,12.90
2023-03-17T08:56:22.785Z,12.90
2023-03-17T08:58:50.769Z,13.00
2023-03-17T09:01:18.708Z,13.10
2023-03-17T09:03:45.707Z,13.10
2023-03-17T09:06:13.599Z,13.30
2023-03-17T09:08:44.957Z,13.20
2023-03-17T09:11:14.808Z,13.20
2023-03-17T09:13:42.280Z,13.40
2023-03-17T09:16:10.010Z,13.30
2023-03-17T09:18:37.409Z,13.30
2023-03-17T09:21:05.260Z,13.30
2023-03-17T09:23:32.685Z,13.40
2023-03-17T09:26:00.152Z,13.40
2023-03-17T09:28:27.305Z,13.50
2023-03-17T09:31:02.596Z,13.50
2023-03-17T09:33:30.143Z,13.60
2023-03-17T09:35:57.435Z,13.60
2023-03-17T09:38:27.474Z,13.60
2023-03-17T09:41:19.931Z,13.60
2023-03-17T09:44:05.443Z,13.70
2023-03-17T09:46:44.178Z,13.70
2023-03-17T09:49:20.652Z,13.80
2023-03-17T09:51:48.239Z,13.80
2023-03-17T09:54:36.584Z,13.80
2023-03-17T09:57:18.370Z,13.80
2023-03-17T09:59:48.514Z,13.90
2023-03-17T10:02:29.188Z,13.90
2023-03-17T10:04:57.454Z,13.90
2023-03-17T10:07:41.977Z,13.90
2023-03-17T10:10:42.624Z,14.00
2023-03-17T10:13:32.430Z,13.90
2023-03-17T10:16:12.253Z,14.00
2023-03-17T10:18:49.941Z,14.00
2023-03-17T10:21:24.363Z,14.00
2023-03-17T10:23:53.171Z,14.00
2023-03-17T10:26:34.977Z,14.20
2023-03-17T10:29:06.016Z,14.00
2023-03-17T10:31:35.584Z,14.10
2023-03-17T10:34:13.747Z,14.10
2023-03-17T10:36:44.651Z,14.00
2023-03-17T10:39:14.781Z,14.00
2023-03-17T10:41:53.511Z,14.00
2023-03-17T10:44:39.548Z,14.10
2023-03-17T10:47:19.507Z,14.00
2023-03-17T10:49:47.091Z,14.10
2023-03-17T10:52:22.524Z,14.10
2023-03-17T10:54:51.433Z,14.20
2023-03-17T10:57:18.660Z,14.20
2023-03-17T10:59:53.824Z,14.20
2023-03-17T11:02:23.514Z,14.30
2023-03-17T11:05:00.932Z,14.20
2023-03-17T11:07:41.027Z,14.30
2023-03-17T11:10:21.414Z,15.30
2023-03-17T11:12:54.921Z,14.30
2023-03-17T11:15:22.742Z,14.40
2023-03-17T11:18:01.436Z,14.40
2023-03-17T11:20:51.324Z,14.50
2023-03-17T11:23:27.287Z,14.40
2023-03-17T11:26:19.078Z,14.50
2023-03-17T11:29:12.945Z,14.50
2023-03-17T11:31:59.028Z,13.90
2023-03-17T11:34:43.545Z,14.60
2023-03-17T11:37:26.609Z,14.60
2023-03-17T11:40:04.111Z,14.60
2023-03-17T11:42:58.507Z,14.60
2023-03-17T11:45:46.932Z,14.70
2023-03-17T11:48:38.758Z,14.70
2023-03-17T11:51:28.802Z,14.70
2023-03-17T11:54:29.690Z,15.00
2023-03-17T11:57:03.308Z,15.10
2023-03-17T11:59:38.253Z,15.40
2023-03-17T12:02:40.889Z,15.40
2023-03-17T12:05:10.487Z,15.50
2023-03-17T12:07:42.155Z,15.50
2023-03-17T12:10:15.784Z,15.60
2023-03-17T12:12:49.892Z,15.80
2023-03-17T12:15:30.867Z,15.90
2023-03-17T12:18:32.834Z,15.70
2023-03-17T12:21:14.702Z,15.70
2023-03-17T12:23:49.519Z,15.60
2023-03-17T12:26:20.462Z,15.70
2023-03-17T12:29:19.334Z,15.60
2023-03-17T12:31:52.292Z,15.60
2023-03-17T12:34:41.403Z,15.70
2023-03-17T12:37:08.570Z,15.70
2023-03-17T12:39:37.319Z,15.80
2023-03-17T12:42:28.580Z,15.70
2023-03-17T12:45:27.540Z,15.70
2023-03-17T12:48:04.024Z,15.70
2023-03-17T12:51:05.994Z,15.70
2023-03-17T12:53:36.613Z,15.70
2023-03-17T12:56:22.172Z,15.70
2023-03-17T12:58:51.457Z,15.70
2023-03-17T13:01:38.798Z,15.70
2023-03-17T13:04:26.473Z,15.70
2023-03-17T13:07:18.317Z,15.80
2023-03-17T13:10:13.512Z,15.80
2023-03-17T13:12:40.336Z,15.80
2023-03-17T13:15:22.702Z,16.10
2023-03-17T13:17:50.065Z,15.70
2023-03-17T13:20:19.577Z,15.80
2023-03-17T13:23:02.489Z,15.80
2023-03-17T13:25:55.544Z,15.80
2023-03-17T13:28:41.389Z,15.90
2023-03-17T13:31:29.759Z,16.00
2023-03-17T13:34:03.067Z,16.60
2023-03-17T13:36:40.062Z,16.00
2023-03-17T13:39:47.891Z,16.00
2023-03-17T13:42:37.902Z,16.10
2023-03-17T13:45:05.504Z,16.00
2023-03-17T13:47:35.532Z,15.90
2023-03-17T13:50:08.869Z,15.90
2023-03-17T13:52:41.427Z,15.90
2023-03-17T13:55:23.793Z,15.90
2023-03-17T13:58:23.750Z,15.90
2023-03-17T14:00:57.903Z,16.00
2023-03-17T14:03:35.454Z,16.00
2023-03-17T14:06:08.038Z,16.00
2023-03-17T14:08:35.612Z,16.00
2023-03-17T14:11:07.282Z,16.00
2023-03-17T14:14:02.161Z,16.10
2023-03-17T14:16:33.835Z,16.10
2023-03-17T14:19:20.346Z,16.00
2023-03-17T14:21:47.220Z,16.00
2023-03-17T14:24:25.514Z,16.10
2023-03-17T14:26:52.894Z,16.10
2023-03-17T14:29:24.390Z,16.10
2023-03-17T14:32:02.230Z,16.10
2023-03-17T14:34:29.213Z,16.10
2023-03-17T14:37:01.623Z,16.20
2023-03-17T14:39:28.684Z,16.50
2023-03-17T14:42:03.339Z,17.10
2023-03-17T14:44:38.942Z,17.80
2023-03-17T14:47:13.888Z,18.10
2023-03-17T14:49:41.079Z,18.00
2023-03-17T14:52:22.609Z,17.80
2023-03-17T14:54:52.812Z,17.60
2023-03-17T14:57:23.678Z,17.40
2023-03-17T14:59:59.887Z,17.20
2023-03-17T15:02:34.602Z,17.00
2023-03-17T15:05:20.122Z,16.80
2023-03-17T15:07:46.816Z,16.70
2023-03-17T15:10:25.995Z,16.90
2023-03-17T15:13:01.491Z,16.60
2023-03-17T15:15:41.651Z,16.60
2023-03-17T15:18:13.913Z,16.50
2023-03-17T15:20:43.645Z,16.40
2023-03-17T15:23:20.279Z,16.40
2023-03-17T15:25:51.259Z,16.30
2023-03-17T15:28:20.119Z,16.50
2023-03-17T15:30:50.141Z,16.50
2023-03-17T15:33:34.277Z,16.50
2023-03-17T15:36:01.797Z,16.40
2023-03-17T15:38:29.105Z,16.40
2023-03-17T15:40:55.844Z,16.30
2023-03-17T15:43:23.514Z,16.20
2023-03-17T15:46:00.786Z,16.30
2023-03-17T15:48:31.532Z,16.20
2023-03-17T15:51:00.231Z,16.20
2023-03-17T15:53:28.083Z,16.10
2023-03-17T15:55:54.799Z,16.10
2023-03-17T15:58:22.106Z,16.00
2023-03-17T16:00:53.432Z,16.00
2023-03-17T16:03:33.878Z,15.90
2023-03-17T16:06:02.747Z,16.00
2023-03-17T16:08:29.456Z,15.90
2023-03-17T16:10:56.395Z,15.90
2023-03-17T16:13:23.104Z,15.70
2023-03-17T16:15:58.207Z,15.80
2023-03-17T16:18:33.919Z,15.80
2023-03-17T16:21:01.463Z,15.70
2023-03-17T16:23:31.620Z,15.70
2023-03-17T16:26:11.675Z,15.80
2023-03-17T16:28:41.923Z,15.60
2023-03-17T16:31:28.358Z,15.60
2023-03-17T16:33:55.539Z,15.60
2023-03-17T16:36:23.786Z,15.70
2023-03-17T16:38:51.326Z,15.60
2023-03-17T16:41:27.297Z,15.60
2023-03-17T16:44:01.669Z,15.50
2023-03-17T16:46:34.593Z,15.50
2023-03-17T16:49:02.165Z,15.40
2023-03-17T16:51:28.901Z,15.60
2023-03-17T16:53:55.755Z,15.40
2023-03-17T16:56:24.766Z,15.50
2023-03-17T16:58:51.680Z,15.50
2023-03-17T17:01:22.510Z,15.60
2023-03-17T17:03:49.876Z,15.50
2023-03-17T17:06:18.334Z,15.40
2023-03-17T17:08:46.080Z,15.40
2023-03-17T17:11:14.544Z,15.40
2023-03-17T17:13:43.131Z,15.40
2023-03-17T17:16:23.367Z,15.30
2023-03-17T17:18:50.304Z,15.30
2023-03-17T17:21:17.130Z,15.30
2023-03-17T17:23:44.031Z,15.30
2023-03-17T17:26:11.220Z,15.30
2023-03-17T17:28:39.976Z,15.40
2023-03-17T17:31:10.253Z,15.20
2023-03-17T17:33:37.936Z,15.20
2023-03-17T17:36:08.038Z,16.30
2023-03-17T17:38:34.816Z,15.20
2023-03-17T17:41:03.356Z,15.20
2023-03-17T17:43:30.438Z,15.40
2023-03-17T17:45:57.251Z,15.20
2023-03-17T17:48:26.361Z,15.20
2023-03-17T17:50:54.763Z,15.10
2023-03-17T17:53:21.947Z,15.10
2023-03-17T17:55:50.447Z,15.10
2023-03-17T17:58:20.595Z,15.10
2023-03-17T18:00:47.579Z,15.10
2023-03-17T18:03:14.548Z,15.20
2023-03-17T18:05:41.638Z,15.10
2023-03-17T18:08:08.821Z,15.10
2023-03-17T18:10:35.654Z,15.10
2023-03-17T18:13:02.554Z,15.10
2023-03-17T18:15:29.410Z,15.10
2023-03-17T18:17:56.565Z,15.10
2023-03-17T18:20:25.223Z,15.00
2023-03-17T18:22:52.681Z,15.00
2023-03-17T18:25:19.627Z,15.00
2023-03-17T18:27:47.893Z,15.00
2023-03-17T18:30:23.322Z,15.00
2023-03-17T18:32:53.409Z,15.00
2023-03-17T18:35:21.959Z,15.00
2023-03-17T18:37:50.515Z,15.00
2023-03-17T18:40:19.036Z,15.00
2023-03-17T18:42:46.670Z,14.90
2023-03-17T18:45:14.355Z,14.90
2023-03-17T18:47:42.044Z,15.00
2023-03-17T18:50:12.292Z,14.90
2023-03-17T18:52:41.067Z,14.90
2023-03-17T18:55:09.384Z,14.90
2023-03-17T18:57:37.159Z,14.90
2023-03-17T19:00:05.897Z,14.90
2023-03-17T19:02:33.394Z,14.80
2023-03-17T19:05:00.813Z,14.80
2023-03-17T19:07:27.848Z,14.80
2023-03-17T19:09:54.755Z,14.80
2023-03-17T19:12:21.890Z,15.00
2023-03-17T19:14:48.803Z,14.80
2023-03-17T19:17:15.536Z,14.70
2023-03-17T19:19:42.252Z,14.80
2023-03-17T19:22:10.870Z,14.70
2023-03-17T19:24:37.767Z,14.70
2023-03-17T19:27:05.607Z,14.70
2023-03-17T19:29:33.408Z,14.70
2023-03-17T19:32:00.553Z,14.70
2023-03-17T19:34:27.518Z,14.70
2023-03-17T19:36:54.342Z,14.70
2023-03-17T19:39:21.582Z,14.60
2023-03-17T19:41:50.080Z,14.60
2023-03-17T19:44:16.804Z,14.60
2023-03-17T19:46:43.618Z,14.60
2023-03-17T19:49:11.698Z,14.60
2023-03-17T19:51:38.423Z,14.60
2023-03-17T19:54:05.401Z,14.60
2023-03-17T19:56:32.230Z,14.60
2023-03-17T19:58:59.434Z,14.50
2023-03-17T20:01:27.636Z,14.50
2023-03-17T20:03:54.518Z,14.60
2023-03-17T20:06:21.523Z,14.50
2023-03-17T20:08:48.346Z,14.50
2023-03-17T20:11:15.070Z,14.40
2023-03-17T20:13:41.785Z,14.30
2023-03-17T20:16:09.298Z,14.40
2023-03-17T20:18:36.424Z,14.40
2023-03-17T20:21:05.815Z,14.40
2023-03-17T20:23:33.406Z,14.30
2023-03-17T20:26:01.308Z,14.30
2023-03-17T20:28:30.037Z,14.30
2023-03-17T20:31:01.162Z,14.30
2023-03-17T20:33:29.605Z,14.30
2023-03-17T20:35:56.561Z,14.20
2023-03-17T20:38:23.741Z,14.20
2023-03-17T20:40:50.653Z,14.20
2023-03-17T20:43:17.858Z,14.30
2023-03-17T20:45:44.556Z,14.40
2023-03-17T20:48:12.108Z,14.20
2023-03-17T20:50:40.963Z,14.10
2023-03-17T20:53:08.692Z,14.10
2023-03-17T20:55:36.509Z,14.10
2023-03-17T20:58:04.018Z,14.00
2023-03-17T21:00:32.013Z,14.10
2023-03-17T21:03:00.811Z,14.00
2023-03-17T21:05:28.484Z,13.90
2023-03-17T21:07:56.624Z,13.80
2023-03-17T21:10:23.645Z,13.80
2023-03-17T21:12:50.430Z,13.80
2023-03-17T21:15:18.247Z,13.80
2023-03-17T21:17:45.243Z,13.80
2023-03-17T21:20:13.184Z,13.80
2023-03-17T21:22:41.012Z,13.70
2023-03-17T21:25:10.209Z,13.70
2023-03-17T21:27:37.798Z,13.70
2023-03-17T21:30:08.800Z,13.70
2023-03-17T21:32:36.190Z,13.70
2023-03-17T21:35:03.734Z,13.70
2023-03-17T21:37:30.983Z,13.70
2023-03-17T21:39:58.144Z,13.70
2023-03-17T21:42:25.354Z,13.70
2023-03-17T21:44:52.468Z,13.60
2023-03-17T21:47:20.172Z,13.60
2023-03-17T21:49:47.284Z,13.60
2023-03-17T21:52:15.063Z,13.60
2023-03-17T21:54:42.061Z,13.50
2023-03-17T21:57:09.407Z,13.50
2023-03-17T21:59:36.265Z,13.60
2023-03-17T22:02:03.634Z,13.60
2023-03-17T22:04:30.373Z,13.60
2023-03-17T22:06:58.987Z,13.50
2023-03-17T22:09:26.313Z,13.60
2023-03-17T22:11:53.035Z,13.50
2023-03-17T22:14:20.698Z,13.50
2023-03-17T22:16:48.977Z,13.50
2023-03-17T22:19:16.456Z,13.50
2023-03-17T22:21:43.999Z,13.50
2023-03-17T22:24:11.730Z,13.60
2023-03-17T22:26:38.472Z,12.30
2023-03-17T22:29:05.666Z,13.50
2023-03-17T22:31:32.621Z,13.50
2023-03-17T22:33:59.891Z,13.50
2023-03-17T22:36:27.256Z,13.40
2023-03-17T22:38:54.977Z,13.40
2023-03-17T22:41:24.416Z,13.40
2023-03-17T22:43:51.627Z,13.40
2023-03-17T22:46:18.806Z,13.30
2023-03-17T22:48:46.696Z,13.20
2023-03-17T22:51:16.985Z,13.20
2023-03-17T22:53:44.687Z,13.10
2023-03-17T22:56:13.052Z,13.20
2023-03-17T22:58:40.500Z,13.20
2023-03-17T23:01:08.360Z,13.10
2023-03-17T23:03:35.887Z,13.10
2023-03-17T23:06:03.940Z,13.10
2023-03-17T23:08:34.977Z,13.10
2023-03-17T23:11:07.120Z,13.30
2023-03-17T23:13:35.256Z,13.20
2023-03-17T23:16:02.875Z,13.10
2023-03-17T23:18:29.601Z,13.10
2023-03-17T23:20:56.667Z,13.10
2023-03-17T23:23:23.641Z,13.10
2023-03-17T23:25:50.385Z,13.10
2023-03-17T23:28:17.235Z,13.00
2023-03-17T23:30:46.099Z,13.00
2023-03-17T23:33:14.085Z,13.00
2023-03-17T23:35:40.886Z,12.90
2023-03-17T23:38:08.815Z,12.90
2023-03-17T23:40:36.115Z,12.90
2023-03-17T23:43:05.426Z,12.80
2023-03-17T23:45:33.718Z,12.80
2023-03-17T23:48:01.663Z,12.80
2023-03-17T23:50:28.440Z,12.80
2023-03-17T23:52:55.130Z,12.90
2023-03-17T23:55:21.921Z,12.80
2023-03-17T23:57:49.275Z,12.80
